sensor_id;sensor_type;location;lat;lon;timestamp;P1;durP1;ratioP1;P2;durP2;ratioP2
19623;SDS011;9959;49.798;9.928;2023-03-01T00:02:11;34.40;;;12.60;;
19623;SDS011;9959;49.798;9.928;2023-03-01T00:04:41;31.67;;;11.67;;
19623;SDS011;9959;49.798;9.928;2023-03-01T00:07:08;31.57;;;12.30;;
19623;SDS011;9959;49.798;9.928;2023-03-01T00:09:37;36.17;;;13.77;;
19623;SDS011;9959;49.798;9.928;2023-03-01T00:12:04;33.33;;;12.90;;
19623;SDS011;9959;49.798;9.928;2023-03-01T00:14:31;34.17;;;13.73;;
19623;SDS011;9959;49.798;9.928;2023-03-01T00:16:58;31.77;;;12.17;;
19623;SDS011;9959;49.798;9.928;2023-03-01T00:19:25;28.13;;;11.83;;
19623;SDS011;9959;49.798;9.928;2023-03-01T00:21:52;33.13;;;12.87;;
19623;SDS011;9959;49.798;9.928;2023-03-01T00:24:19;30.87;;;12.90;;
19623;SDS011;9959;49.798;9.928;2023-03-01T00:26:46;32.27;;;12.57;;
19623;SDS011;9959;49.798;9.928;2023-03-01T00:29:13;30.03;;;12.13;;
19623;SDS011;9959;49.798;9.928;2023-03-01T00:31:40;31.00;;;12.07;;
19623;SDS011;9959;49.798;9.928;2023-03-01T00:34:06;36.53;;;11.90;;
19623;SDS011;9959;49.798;9.928;2023-03-01T00:36:34;28.03;;;12.30;;
19623;SDS011;9959;49.798;9.928;2023-03-01T00:39:03;35.77;;;13.23;;
19623;SDS011;9959;49.798;9.928;2023-03-01T00:41:32;31.53;;;12.07;;
19623;SDS011;9959;49.798;9.928;2023-03-01T00:44:00;37.37;;;13.67;;
19623;SDS011;9959;49.798;9.928;2023-03-01T00:46:28;34.20;;;13.50;;
19623;SDS011;9959;49.798;9.928;2023-03-01T00:48:57;32.10;;;12.23;;
19623;SDS011;9959;49.798;9.928;2023-03-01T00:51:25;32.50;;;12.83;;
19623;SDS011;9959;49.798;9.928;2023-03-01T00:53:54;38.07;;;13.83;;
19623;SDS011;9959;49.798;9.928;2023-03-01T00:56:23;36.57;;;13.20;;
19623;SDS011;9959;49.798;9.928;2023-03-01T00:58:50;36.50;;;12.07;;
19623;SDS011;9959;49.798;9.928;2023-03-01T01:01:18;31.67;;;12.40;;
19623;SDS011;9959;49.798;9.928;2023-03-01T01:03:48;31.40;;;13.30;;
19623;SDS011;9959;49.798;9.928;2023-03-01T01:06:21;35.73;;;12.93;;
19623;SDS011;9959;49.798;9.928;2023-03-01T01:08:50;32.67;;;12.60;;
19623;SDS011;9959;49.798;9.928;2023-03-01T01:11:18;32.77;;;12.20;;
19623;SDS011;9959;49.798;9.928;2023-03-01T01:13:46;35.20;;;11.80;;
19623;SDS011;9959;49.798;9.928;2023-03-01T01:16:14;32.13;;;12.70;;
19623;SDS011;9959;49.798;9.928;2023-03-01T01:18:41;37.77;;;13.97;;
19623;SDS011;9959;49.798;9.928;2023-03-01T01:21:10;37.37;;;13.00;;
19623;SDS011;9959;49.798;9.928;2023-03-01T01:23:39;36.20;;;13.67;;
19623;SDS011;9959;49.798;9.928;2023-03-01T01:26:10;36.50;;;13.10;;
19623;SDS011;9959;49.798;9.928;2023-03-01T01:28:39;34.87;;;13.03;;
19623;SDS011;9959;49.798;9.928;2023-03-01T01:31:06;34.10;;;12.40;;
19623;SDS011;9959;49.798;9.928;2023-03-01T01:33:33;31.13;;;12.80;;
19623;SDS011;9959;49.798;9.928;2023-03-01T01:36:00;35.83;;;12.60;;
19623;SDS011;9959;49.798;9.928;2023-03-01T01:38:27;32.30;;;13.53;;
19623;SDS011;9959;49.798;9.928;2023-03-01T01:40:54;36.13;;;12.40;;
19623;SDS011;9959;49.798;9.928;2023-03-01T01:43:29;33.83;;;12.33;;
19623;SDS011;9959;49.798;9.928;2023-03-01T01:46:01;39.43;;;13.17;;
19623;SDS011;9959;49.798;9.928;2023-03-01T01:48:42;34.20;;;13.27;;
19623;SDS011;9959;49.798;9.928;2023-03-01T01:51:11;34.23;;;11.80;;
19623;SDS011;9959;49.798;9.928;2023-03-01T01:53:41;32.17;;;12.90;;
19623;SDS011;9959;49.798;9.928;2023-03-01T01:56:10;40.30;;;13.47;;
19623;SDS011;9959;49.798;9.928;2023-03-01T01:58:39;40.80;;;13.90;;
19623;SDS011;9959;49.798;9.928;2023-03-01T02:01:08;30.43;;;13.10;;
19623;SDS011;9959;49.798;9.928;2023-03-01T02:03:35;31.87;;;12.13;;
19623;SDS011;9959;49.798;9.928;2023-03-01T02:06:13;33.33;;;13.40;;
19623;SDS011;9959;49.798;9.928;2023-03-01T02:08:45;37.50;;;12.83;;
19623;SDS011;9959;49.798;9.928;2023-03-01T02:11:13;36.73;;;13.33;;
19623;SDS011;9959;49.798;9.928;2023-03-01T02:13:41;38.40;;;12.77;;
19623;SDS011;9959;49.798;9.928;2023-03-01T02:16:10;33.40;;;13.20;;
19623;SDS011;9959;49.798;9.928;2023-03-01T02:18:40;38.67;;;14.00;;
19623;SDS011;9959;49.798;9.928;2023-03-01T02:23:54;35.40;;;12.70;;
19623;SDS011;9959;49.798;9.928;2023-03-01T02:26:29;47.67;;;13.63;;
19623;SDS011;9959;49.798;9.928;2023-03-01T02:29:03;39.87;;;13.57;;
19623;SDS011;9959;49.798;9.928;2023-03-01T02:31:32;41.23;;;12.30;;
19623;SDS011;9959;49.798;9.928;2023-03-01T02:34:06;39.17;;;14.03;;
19623;SDS011;9959;49.798;9.928;2023-03-01T02:36:38;34.17;;;13.17;;
19623;SDS011;9959;49.798;9.928;2023-03-01T02:39:08;37.03;;;13.70;;
19623;SDS011;9959;49.798;9.928;2023-03-01T02:41:44;39.70;;;13.77;;
19623;SDS011;9959;49.798;9.928;2023-03-01T02:44:14;35.73;;;13.47;;
19623;SDS011;9959;49.798;9.928;2023-03-01T02:46:43;32.47;;;12.30;;
19623;SDS011;9959;49.798;9.928;2023-03-01T02:49:28;40.60;;;13.13;;
19623;SDS011;9959;49.798;9.928;2023-03-01T02:54:40;39.87;;;12.67;;
19623;SDS011;9959;49.798;9.928;2023-03-01T02:57:07;32.47;;;11.80;;
19623;SDS011;9959;49.798;9.928;2023-03-01T02:59:35;34.97;;;13.53;;
19623;SDS011;9959;49.798;9.928;2023-03-01T03:02:06;34.10;;;12.57;;
19623;SDS011;9959;49.798;9.928;2023-03-01T03:04:34;39.03;;;14.83;;
19623;SDS011;9959;49.798;9.928;2023-03-01T03:07:01;39.23;;;13.27;;
19623;SDS011;9959;49.798;9.928;2023-03-01T03:09:28;40.07;;;14.03;;
19623;SDS011;9959;49.798;9.928;2023-03-01T03:11:54;35.33;;;13.63;;
19623;SDS011;9959;49.798;9.928;2023-03-01T03:14:21;39.53;;;14.27;;
19623;SDS011;9959;49.798;9.928;2023-03-01T03:16:49;34.23;;;12.63;;
19623;SDS011;9959;49.798;9.928;2023-03-01T03:19:17;38.93;;;13.43;;
19623;SDS011;9959;49.798;9.928;2023-03-01T03:21:45;39.50;;;14.03;;
19623;SDS011;9959;49.798;9.928;2023-03-01T03:24:12;37.67;;;13.87;;
19623;SDS011;9959;49.798;9.928;2023-03-01T03:26:43;35.70;;;13.47;;
19623;SDS011;9959;49.798;9.928;2023-03-01T03:29:09;36.07;;;12.73;;
19623;SDS011;9959;49.798;9.928;2023-03-01T03:31:36;32.93;;;13.37;;
19623;SDS011;9959;49.798;9.928;2023-03-01T03:34:03;35.87;;;13.87;;
19623;SDS011;9959;49.798;9.928;2023-03-01T03:36:30;33.27;;;12.97;;
19623;SDS011;9959;49.798;9.928;2023-03-01T03:38:57;40.00;;;13.73;;
19623;SDS011;9959;49.798;9.928;2023-03-01T03:41:23;32.33;;;13.17;;
19623;SDS011;9959;49.798;9.928;2023-03-01T03:43:50;41.50;;;14.67;;
19623;SDS011;9959;49.798;9.928;2023-03-01T03:46:17;34.40;;;12.60;;
19623;SDS011;9959;49.798;9.928;2023-03-01T03:48:44;33.87;;;13.20;;
19623;SDS011;9959;49.798;9.928;2023-03-01T03:51:13;43.10;;;14.00;;
19623;SDS011;9959;49.798;9.928;2023-03-01T03:53:41;34.43;;;12.90;;
19623;SDS011;9959;49.798;9.928;2023-03-01T03:56:07;30.50;;;12.43;;
19623;SDS011;9959;49.798;9.928;2023-03-01T03:58:35;36.53;;;12.30;;
19623;SDS011;9959;49.798;9.928;2023-03-01T04:01:02;37.23;;;14.27;;
19623;SDS011;9959;49.798;9.928;2023-03-01T04:03:29;42.33;;;14.33;;
19623;SDS011;9959;49.798;9.928;2023-03-01T04:05:58;37.90;;;13.13;;
19623;SDS011;9959;49.798;9.928;2023-03-01T04:08:27;36.37;;;13.17;;
19623;SDS011;9959;49.798;9.928;2023-03-01T04:11:01;40.63;;;13.83;;
19623;SDS011;9959;49.798;9.928;2023-03-01T04:13:48;34.10;;;12.87;;
19623;SDS011;9959;49.798;9.928;2023-03-01T04:16:16;36.80;;;12.70;;
19623;SDS011;9959;49.798;9.928;2023-03-01T04:18:44;32.93;;;13.70;;
19623;SDS011;9959;49.798;9.928;2023-03-01T04:21:11;35.80;;;13.73;;
19623;SDS011;9959;49.798;9.928;2023-03-01T04:23:38;34.73;;;13.00;;
19623;SDS011;9959;49.798;9.928;2023-03-01T04:26:06;33.60;;;13.23;;
19623;SDS011;9959;49.798;9.928;2023-03-01T04:28:34;35.73;;;12.40;;
19623;SDS011;9959;49.798;9.928;2023-03-01T04:31:07;26.43;;;10.37;;
19623;SDS011;9959;49.798;9.928;2023-03-01T04:33:44;36.87;;;12.50;;
19623;SDS011;9959;49.798;9.928;2023-03-01T04:36:14;30.93;;;12.37;;
19623;SDS011;9959;49.798;9.928;2023-03-01T04:38:42;35.63;;;12.67;;
19623;SDS011;9959;49.798;9.928;2023-03-01T04:41:14;31.33;;;12.53;;
19623;SDS011;9959;49.798;9.928;2023-03-01T04:43:42;33.47;;;12.77;;
19623;SDS011;9959;49.798;9.928;2023-03-01T04:46:13;35.70;;;12.13;;
19623;SDS011;9959;49.798;9.928;2023-03-01T04:48:42;31.53;;;12.77;;
19623;SDS011;9959;49.798;9.928;2023-03-01T04:51:10;35.00;;;12.03;;
19623;SDS011;9959;49.798;9.928;2023-03-01T04:53:41;33.10;;;11.87;;
19623;SDS011;9959;49.798;9.928;2023-03-01T04:56:08;29.70;;;11.63;;
19623;SDS011;9959;49.798;9.928;2023-03-01T04:58:36;32.93;;;12.93;;
19623;SDS011;9959;49.798;9.928;2023-03-01T05:01:37;31.87;;;12.83;;
19623;SDS011;9959;49.798;9.928;2023-03-01T05:03:56;37.77;;;13.37;;
19623;SDS011;9959;49.798;9.928;2023-03-01T05:06:29;34.83;;;12.77;;
19623;SDS011;9959;49.798;9.928;2023-03-01T05:08:56;33.47;;;12.50;;
19623;SDS011;9959;49.798;9.928;2023-03-01T05:11:23;32.97;;;11.90;;
19623;SDS011;9959;49.798;9.928;2023-03-01T05:13:50;34.67;;;12.77;;
19623;SDS011;9959;49.798;9.928;2023-03-01T05:16:21;34.03;;;13.53;;
19623;SDS011;9959;49.798;9.928;2023-03-01T05:18:48;32.93;;;12.00;;
19623;SDS011;9959;49.798;9.928;2023-03-01T05:21:16;26.57;;;10.90;;
19623;SDS011;9959;49.798;9.928;2023-03-01T05:23:43;32.80;;;12.53;;
19623;SDS011;9959;49.798;9.928;2023-03-01T05:26:11;30.83;;;12.30;;
19623;SDS011;9959;49.798;9.928;2023-03-01T05:28:53;31.53;;;12.80;;
19623;SDS011;9959;49.798;9.928;2023-03-01T05:31:25;33.40;;;12.67;;
19623;SDS011;9959;49.798;9.928;2023-03-01T05:33:53;34.77;;;13.07;;
19623;SDS011;9959;49.798;9.928;2023-03-01T05:36:20;33.10;;;12.00;;
19623;SDS011;9959;49.798;9.928;2023-03-01T05:38:47;34.77;;;13.90;;
19623;SDS011;9959;49.798;9.928;2023-03-01T05:41:14;39.10;;;12.83;;
19623;SDS011;9959;49.798;9.928;2023-03-01T05:43:43;34.33;;;12.40;;
19623;SDS011;9959;49.798;9.928;2023-03-01T05:46:11;37.17;;;12.63;;
19623;SDS011;9959;49.798;9.928;2023-03-01T05:48:39;36.77;;;12.73;;
19623;SDS011;9959;49.798;9.928;2023-03-01T05:51:06;36.23;;;11.70;;
19623;SDS011;9959;49.798;9.928;2023-03-01T05:53:33;35.63;;;12.37;;
19623;SDS011;9959;49.798;9.928;2023-03-01T05:56:02;33.70;;;12.47;;
19623;SDS011;9959;49.798;9.928;2023-03-01T05:58:30;34.40;;;13.67;;
19623;SDS011;9959;49.798;9.928;2023-03-01T06:00:57;38.60;;;14.03;;
19623;SDS011;9959;49.798;9.928;2023-03-01T06:03:24;40.83;;;14.70;;
19623;SDS011;9959;49.798;9.928;2023-03-01T06:05:57;36.80;;;12.93;;
19623;SDS011;9959;49.798;9.928;2023-03-01T06:08:28;35.80;;;13.60;;
19623;SDS011;9959;49.798;9.928;2023-03-01T06:10:55;35.27;;;13.67;;
19623;SDS011;9959;49.798;9.928;2023-03-01T06:13:22;35.47;;;14.43;;
19623;SDS011;9959;49.798;9.928;2023-03-01T06:15:49;42.17;;;14.57;;
19623;SDS011;9959;49.798;9.928;2023-03-01T06:18:17;32.83;;;11.37;;
19623;SDS011;9959;49.798;9.928;2023-03-01T06:20:44;37.40;;;14.00;;
19623;SDS011;9959;49.798;9.928;2023-03-01T06:23:18;41.20;;;14.10;;
19623;SDS011;9959;49.798;9.928;2023-03-01T06:25:45;39.83;;;13.53;;
19623;SDS011;9959;49.798;9.928;2023-03-01T06:28:11;40.23;;;14.10;;
19623;SDS011;9959;49.798;9.928;2023-03-01T06:30:38;34.97;;;13.67;;
19623;SDS011;9959;49.798;9.928;2023-03-01T06:33:05;35.93;;;12.60;;
19623;SDS011;9959;49.798;9.928;2023-03-01T06:35:32;36.33;;;14.13;;
19623;SDS011;9959;49.798;9.928;2023-03-01T06:38:00;37.70;;;12.77;;
19623;SDS011;9959;49.798;9.928;2023-03-01T06:40:32;34.27;;;14.47;;
19623;SDS011;9959;49.798;9.928;2023-03-01T06:43:03;49.43;;;15.93;;
19623;SDS011;9959;49.798;9.928;2023-03-01T06:45:30;42.73;;;15.33;;
19623;SDS011;9959;49.798;9.928;2023-03-01T06:48:06;39.70;;;14.67;;
19623;SDS011;9959;49.798;9.928;2023-03-01T06:50:35;42.77;;;13.90;;
19623;SDS011;9959;49.798;9.928;2023-03-01T06:53:02;37.10;;;14.73;;
19623;SDS011;9959;49.798;9.928;2023-03-01T06:55:29;31.83;;;12.40;;
19623;SDS011;9959;49.798;9.928;2023-03-01T06:57:57;37.83;;;13.57;;
19623;SDS011;9959;49.798;9.928;2023-03-01T07:00:25;35.67;;;13.80;;
19623;SDS011;9959;49.798;9.928;2023-03-01T07:02:53;44.57;;;13.87;;
19623;SDS011;9959;49.798;9.928;2023-03-01T07:05:21;38.53;;;13.67;;
19623;SDS011;9959;49.798;9.928;2023-03-01T07:07:47;39.00;;;13.53;;
19623;SDS011;9959;49.798;9.928;2023-03-01T07:10:14;32.93;;;12.23;;
19623;SDS011;9959;49.798;9.928;2023-03-01T07:12:41;28.03;;;10.70;;
19623;SDS011;9959;49.798;9.928;2023-03-01T07:15:08;34.57;;;13.07;;
19623;SDS011;9959;49.798;9.928;2023-03-01T07:17:36;34.47;;;12.50;;
19623;SDS011;9959;49.798;9.928;2023-03-01T07:20:03;36.63;;;14.53;;
19623;SDS011;9959;49.798;9.928;2023-03-01T07:22:30;32.77;;;12.77;;
19623;SDS011;9959;49.798;9.928;2023-03-01T07:24:56;38.83;;;14.83;;
19623;SDS011;9959;49.798;9.928;2023-03-01T07:27:23;36.47;;;13.87;;
19623;SDS011;9959;49.798;9.928;2023-03-01T07:29:50;37.20;;;14.47;;
19623;SDS011;9959;49.798;9.928;2023-03-01T07:32:16;45.77;;;14.30;;
19623;SDS011;9959;49.798;9.928;2023-03-01T07:34:43;36.07;;;13.40;;
19623;SDS011;9959;49.798;9.928;2023-03-01T07:37:10;31.10;;;13.35;;
19623;SDS011;9959;49.798;9.928;2023-03-01T07:39:37;37.17;;;12.35;;
19623;SDS011;9959;49.798;9.928;2023-03-01T07:42:03;36.20;;;13.67;;
19623;SDS011;9959;49.798;9.928;2023-03-01T07:44:30;34.97;;;13.23;;
19623;SDS011;9959;49.798;9.928;2023-03-01T07:46:57;37.80;;;14.20;;
19623;SDS011;9959;49.798;9.928;2023-03-01T07:49:24;35.70;;;13.95;;
19623;SDS011;9959;49.798;9.928;2023-03-01T07:51:52;36.08;;;14.55;;
19623;SDS011;9959;49.798;9.928;2023-03-01T07:54:19;35.35;;;14.00;;
19623;SDS011;9959;49.798;9.928;2023-03-01T07:56:46;32.88;;;13.10;;
19623;SDS011;9959;49.798;9.928;2023-03-01T07:59:13;36.60;;;14.68;;
19623;SDS011;9959;49.798;9.928;2023-03-01T08:01:40;40.05;;;14.80;;
19623;SDS011;9959;49.798;9.928;2023-03-01T08:04:07;35.05;;;13.95;;
19623;SDS011;9959;49.798;9.928;2023-03-01T08:06:35;35.75;;;14.13;;
19623;SDS011;9959;49.798;9.928;2023-03-01T08:09:02;34.80;;;14.27;;
19623;SDS011;9959;49.798;9.928;2023-03-01T08:11:29;28.52;;;12.05;;
19623;SDS011;9959;49.798;9.928;2023-03-01T08:13:56;28.75;;;11.40;;
19623;SDS011;9959;49.798;9.928;2023-03-01T08:16:24;34.03;;;13.15;;
19623;SDS011;9959;49.798;9.928;2023-03-01T08:18:50;30.20;;;11.45;;
19623;SDS011;9959;49.798;9.928;2023-03-01T08:21:17;24.90;;;9.75;;
19623;SDS011;9959;49.798;9.928;2023-03-01T08:23:44;36.45;;;15.13;;
19623;SDS011;9959;49.798;9.928;2023-03-01T08:26:13;30.55;;;12.35;;
19623;SDS011;9959;49.798;9.928;2023-03-01T08:28:41;35.55;;;14.75;;
19623;SDS011;9959;49.798;9.928;2023-03-01T08:33:49;34.97;;;15.02;;
19623;SDS011;9959;49.798;9.928;2023-03-01T08:36:22;33.20;;;13.52;;
19623;SDS011;9959;49.798;9.928;2023-03-01T08:38:53;35.80;;;13.15;;
19623;SDS011;9959;49.798;9.928;2023-03-01T08:41:21;33.95;;;14.85;;
19623;SDS011;9959;49.798;9.928;2023-03-01T08:43:49;34.25;;;12.90;;
19623;SDS011;9959;49.798;9.928;2023-03-01T08:46:16;35.92;;;14.65;;
19623;SDS011;9959;49.798;9.928;2023-03-01T08:48:43;37.67;;;15.15;;
19623;SDS011;9959;49.798;9.928;2023-03-01T08:51:11;38.63;;;15.48;;
19623;SDS011;9959;49.798;9.928;2023-03-01T08:53:41;37.67;;;15.32;;
19623;SDS011;9959;49.798;9.928;2023-03-01T08:56:08;33.05;;;16.77;;
19623;SDS011;9959;49.798;9.928;2023-03-01T08:58:36;37.25;;;16.45;;
19623;SDS011;9959;49.798;9.928;2023-03-01T09:01:07;39.90;;;16.67;;
19623;SDS011;9959;49.798;9.928;2023-03-01T09:03:36;33.20;;;16.15;;
19623;SDS011;9959;49.798;9.928;2023-03-01T09:06:05;35.38;;;16.13;;
19623;SDS011;9959;49.798;9.928;2023-03-01T09:08:34;34.42;;;16.15;;
19623;SDS011;9959;49.798;9.928;2023-03-01T09:11:05;34.17;;;16.58;;
19623;SDS011;9959;49.798;9.928;2023-03-01T09:13:33;34.90;;;15.95;;
19623;SDS011;9959;49.798;9.928;2023-03-01T09:16:01;30.55;;;15.55;;
19623;SDS011;9959;49.798;9.928;2023-03-01T09:18:29;31.05;;;15.35;;
19623;SDS011;9959;49.798;9.928;2023-03-01T09:21:01;37.00;;;15.70;;
19623;SDS011;9959;49.798;9.928;2023-03-01T09:26:09;31.33;;;14.95;;
19623;SDS011;9959;49.798;9.928;2023-03-01T09:28:42;29.85;;;11.98;;
19623;SDS011;9959;49.798;9.928;2023-03-01T09:31:11;31.33;;;16.05;;
19623;SDS011;9959;49.798;9.928;2023-03-01T09:33:40;29.23;;;14.52;;
19623;SDS011;9959;49.798;9.928;2023-03-01T09:36:07;32.67;;;15.38;;
19623;SDS011;9959;49.798;9.928;2023-03-01T09:38:38;33.78;;;16.08;;
19623;SDS011;9959;49.798;9.928;2023-03-01T09:41:26;31.60;;;16.23;;
19623;SDS011;9959;49.798;9.928;2023-03-01T09:44:18;35.95;;;15.75;;
19623;SDS011;9959;49.798;9.928;2023-03-01T09:46:47;34.78;;;15.90;;
19623;SDS011;9959;49.798;9.928;2023-03-01T09:49:25;33.90;;;16.17;;
19623;SDS011;9959;49.798;9.928;2023-03-01T09:54:29;25.30;;;11.32;;
19623;SDS011;9959;49.798;9.928;2023-03-01T09:57:06;29.40;;;14.40;;
19623;SDS011;9959;49.798;9.928;2023-03-01T09:59:56;36.05;;;17.30;;
19623;SDS011;9959;49.798;9.928;2023-03-01T10:05:12;31.02;;;16.25;;
19623;SDS011;9959;49.798;9.928;2023-03-01T10:10:55;33.33;;;16.27;;
19623;SDS011;9959;49.798;9.928;2023-03-01T10:16:12;34.55;;;16.50;;
19623;SDS011;9959;49.798;9.928;2023-03-01T10:18:43;36.75;;;17.30;;
19623;SDS011;9959;49.798;9.928;2023-03-01T10:21:17;27.98;;;13.65;;
19623;SDS011;9959;49.798;9.928;2023-03-01T10:23:46;31.60;;;15.45;;
19623;SDS011;9959;49.798;9.928;2023-03-01T10:29:09;37.80;;;17.90;;
19623;SDS011;9959;49.798;9.928;2023-03-01T10:31:39;35.03;;;17.58;;
19623;SDS011;9959;49.798;9.928;2023-03-01T10:34:16;35.50;;;16.88;;
19623;SDS011;9959;49.798;9.928;2023-03-01T10:36:50;30.25;;;16.45;;
19623;SDS011;9959;49.798;9.928;2023-03-01T10:39:20;27.20;;;13.13;;
19623;SDS011;9959;49.798;9.928;2023-03-01T10:41:54;35.22;;;16.90;;
19623;SDS011;9959;49.798;9.928;2023-03-01T10:47:16;30.05;;;15.18;;
19623;SDS011;9959;49.798;9.928;2023-03-01T10:49:51;32.28;;;16.60;;
19623;SDS011;9959;49.798;9.928;2023-03-01T10:55:04;33.33;;;16.85;;
19623;SDS011;9959;49.798;9.928;2023-03-01T10:57:54;34.58;;;15.93;;
19623;SDS011;9959;49.798;9.928;2023-03-01T11:00:51;30.70;;;17.30;;
19623;SDS011;9959;49.798;9.928;2023-03-01T11:03:31;34.78;;;17.40;;
19623;SDS011;9959;49.798;9.928;2023-03-01T11:06:03;28.17;;;16.25;;
19623;SDS011;9959;49.798;9.928;2023-03-01T11:08:49;30.85;;;17.77;;
19623;SDS011;9959;49.798;9.928;2023-03-01T11:13:57;33.28;;;16.25;;
19623;SDS011;9959;49.798;9.928;2023-03-01T11:16:36;32.25;;;16.08;;
19623;SDS011;9959;49.798;9.928;2023-03-01T11:21:39;29.02;;;15.20;;
19623;SDS011;9959;49.798;9.928;2023-03-01T11:24:10;31.45;;;16.23;;
19623;SDS011;9959;49.798;9.928;2023-03-01T11:26:41;31.17;;;15.35;;
19623;SDS011;9959;49.798;9.928;2023-03-01T11:32:07;29.45;;;16.20;;
19623;SDS011;9959;49.798;9.928;2023-03-01T11:37:15;29.65;;;16.27;;
19623;SDS011;9959;49.798;9.928;2023-03-01T11:40:03;29.55;;;15.73;;
19623;SDS011;9959;49.798;9.928;2023-03-01T11:45:09;30.13;;;16.25;;
19623;SDS011;9959;49.798;9.928;2023-03-01T11:52:48;26.98;;;15.52;;
19623;SDS011;9959;49.798;9.928;2023-03-01T12:08:37;28.65;;;15.43;;
19623;SDS011;9959;49.798;9.928;2023-03-01T12:14:16;24.38;;;15.63;;
19623;SDS011;9959;49.798;9.928;2023-03-01T12:22:31;25.25;;;15.43;;
19623;SDS011;9959;49.798;9.928;2023-03-01T12:28:16;31.00;;;16.48;;
19623;SDS011;9959;49.798;9.928;2023-03-01T12:33:32;26.40;;;15.60;;
19623;SDS011;9959;49.798;9.928;2023-03-01T12:49:54;30.95;;;16.55;;
19623;SDS011;9959;49.798;9.928;2023-03-01T12:54:54;25.85;;;16.45;;
19623;SDS011;9959;49.798;9.928;2023-03-01T12:57:26;28.27;;;16.88;;
19623;SDS011;9959;49.798;9.928;2023-03-01T13:00:06;25.40;;;15.98;;
19623;SDS011;9959;49.798;9.928;2023-03-01T13:02:58;23.48;;;15.75;;
19623;SDS011;9959;49.798;9.928;2023-03-01T13:08:13;26.90;;;15.70;;
19623;SDS011;9959;49.798;9.928;2023-03-01T13:10:49;27.00;;;16.42;;
19623;SDS011;9959;49.798;9.928;2023-03-01T13:13:23;29.73;;;16.80;;
19623;SDS011;9959;49.798;9.928;2023-03-01T13:15:51;26.35;;;15.93;;
19623;SDS011;9959;49.798;9.928;2023-03-01T13:20:47;26.30;;;15.23;;
19623;SDS011;9959;49.798;9.928;2023-03-01T13:31:03;24.58;;;15.60;;
19623;SDS011;9959;49.798;9.928;2023-03-01T13:36:00;31.42;;;16.52;;
19623;SDS011;9959;49.798;9.928;2023-03-01T13:44:19;26.00;;;15.93;;
19623;SDS011;9959;49.798;9.928;2023-03-01T13:46:51;25.40;;;16.45;;
19623;SDS011;9959;49.798;9.928;2023-03-01T13:49:36;25.88;;;15.43;;
19623;SDS011;9959;49.798;9.928;2023-03-01T13:52:32;24.60;;;15.20;;
19623;SDS011;9959;49.798;9.928;2023-03-01T13:55:05;24.02;;;15.13;;
19623;SDS011;9959;49.798;9.928;2023-03-01T13:57:47;23.52;;;15.57;;
19623;SDS011;9959;49.798;9.928;2023-03-01T14:00:29;25.10;;;15.00;;
19623;SDS011;9959;49.798;9.928;2023-03-01T14:03:11;23.30;;;15.63;;
19623;SDS011;9959;49.798;9.928;2023-03-01T14:05:39;23.98;;;15.02;;
19623;SDS011;9959;49.798;9.928;2023-03-01T14:08:21;22.48;;;14.45;;
19623;SDS011;9959;49.798;9.928;2023-03-01T14:10:54;25.92;;;15.10;;
19623;SDS011;9959;49.798;9.928;2023-03-01T14:19:04;22.98;;;13.73;;
19623;SDS011;9959;49.798;9.928;2023-03-01T14:24:46;22.92;;;14.15;;
19623;SDS011;9959;49.798;9.928;2023-03-01T14:27:13;23.85;;;13.20;;
19623;SDS011;9959;49.798;9.928;2023-03-01T14:29:41;22.52;;;14.13;;
19623;SDS011;9959;49.798;9.928;2023-03-01T14:32:30;24.08;;;14.43;;
19623;SDS011;9959;49.798;9.928;2023-03-01T14:34:57;24.80;;;14.35;;
19623;SDS011;9959;49.798;9.928;2023-03-01T14:37:27;20.17;;;13.63;;
19623;SDS011;9959;49.798;9.928;2023-03-01T14:39:57;23.83;;;14.55;;
19623;SDS011;9959;49.798;9.928;2023-03-01T14:42:27;20.95;;;12.70;;
19623;SDS011;9959;49.798;9.928;2023-03-01T14:44:57;20.10;;;13.65;;
19623;SDS011;9959;49.798;9.928;2023-03-01T14:47:28;21.15;;;13.40;;
19623;SDS011;9959;49.798;9.928;2023-03-01T14:50:05;21.15;;;13.40;;
19623;SDS011;9959;49.798;9.928;2023-03-01T14:52:42;23.85;;;14.10;;
19623;SDS011;9959;49.798;9.928;2023-03-01T14:55:26;22.58;;;13.85;;
19623;SDS011;9959;49.798;9.928;2023-03-01T14:57:56;20.05;;;13.07;;
19623;SDS011;9959;49.798;9.928;2023-03-01T15:00:28;20.40;;;13.45;;
19623;SDS011;9959;49.798;9.928;2023-03-01T15:02:57;22.45;;;13.43;;
19623;SDS011;9959;49.798;9.928;2023-03-01T15:05:30;22.25;;;13.43;;
19623;SDS011;9959;49.798;9.928;2023-03-01T15:07:59;21.88;;;13.13;;
19623;SDS011;9959;49.798;9.928;2023-03-01T15:10:29;22.90;;;13.43;;
19623;SDS011;9959;49.798;9.928;2023-03-01T15:13:10;19.42;;;12.35;;
19623;SDS011;9959;49.798;9.928;2023-03-01T15:15:39;21.35;;;12.80;;
19623;SDS011;9959;49.798;9.928;2023-03-01T15:18:19;23.13;;;12.55;;
19623;SDS011;9959;49.798;9.928;2023-03-01T15:20:49;19.95;;;12.45;;
19623;SDS011;9959;49.798;9.928;2023-03-01T15:23:25;23.10;;;13.23;;
19623;SDS011;9959;49.798;9.928;2023-03-01T15:25:54;22.35;;;13.07;;
19623;SDS011;9959;49.798;9.928;2023-03-01T15:28:37;19.88;;;12.52;;
19623;SDS011;9959;49.798;9.928;2023-03-01T15:31:20;21.75;;;12.40;;
19623;SDS011;9959;49.798;9.928;2023-03-01T15:33:49;24.48;;;12.32;;
19623;SDS011;9959;49.798;9.928;2023-03-01T15:36:31;21.85;;;11.52;;
19623;SDS011;9959;49.798;9.928;2023-03-01T15:38:58;18.70;;;12.30;;
19623;SDS011;9959;49.798;9.928;2023-03-01T15:41:30;21.45;;;12.30;;
19623;SDS011;9959;49.798;9.928;2023-03-01T15:44:24;21.35;;;12.57;;
19623;SDS011;9959;49.798;9.928;2023-03-01T15:47:29;18.50;;;11.95;;
19623;SDS011;9959;49.798;9.928;2023-03-01T15:49:58;20.75;;;12.38;;
19623;SDS011;9959;49.798;9.928;2023-03-01T15:52:29;24.05;;;12.95;;
19623;SDS011;9959;49.798;9.928;2023-03-01T15:55:03;21.38;;;12.07;;
19623;SDS011;9959;49.798;9.928;2023-03-01T15:57:42;20.17;;;12.15;;
19623;SDS011;9959;49.798;9.928;2023-03-01T16:00:09;21.13;;;12.65;;
19623;SDS011;9959;49.798;9.928;2023-03-01T16:02:41;24.63;;;14.40;;
19623;SDS011;9959;49.798;9.928;2023-03-01T16:05:30;22.50;;;13.40;;
19623;SDS011;9959;49.798;9.928;2023-03-01T16:07:57;25.30;;;13.68;;
19623;SDS011;9959;49.798;9.928;2023-03-01T16:10:24;22.33;;;13.02;;
19623;SDS011;9959;49.798;9.928;2023-03-01T16:12:51;23.42;;;13.20;;
19623;SDS011;9959;49.798;9.928;2023-03-01T16:15:20;23.38;;;12.57;;
19623;SDS011;9959;49.798;9.928;2023-03-01T16:17:48;26.20;;;13.32;;
19623;SDS011;9959;49.798;9.928;2023-03-01T16:20:16;21.88;;;13.65;;
19623;SDS011;9959;49.798;9.928;2023-03-01T16:22:54;25.00;;;13.73;;
19623;SDS011;9959;49.798;9.928;2023-03-01T16:25:24;25.05;;;13.70;;
19623;SDS011;9959;49.798;9.928;2023-03-01T16:27:50;26.33;;;14.38;;
19623;SDS011;9959;49.798;9.928;2023-03-01T16:30:19;26.58;;;13.80;;
19623;SDS011;9959;49.798;9.928;2023-03-01T16:32:48;22.40;;;13.05;;
19623;SDS011;9959;49.798;9.928;2023-03-01T16:35:17;25.05;;;14.27;;
19623;SDS011;9959;49.798;9.928;2023-03-01T16:37:47;25.73;;;14.35;;
19623;SDS011;9959;49.798;9.928;2023-03-01T16:40:18;25.73;;;13.45;;
19623;SDS011;9959;49.798;9.928;2023-03-01T16:42:53;27.63;;;14.13;;
19623;SDS011;9959;49.798;9.928;2023-03-01T16:45:26;25.83;;;13.55;;
19623;SDS011;9959;49.798;9.928;2023-03-01T16:48:05;27.70;;;13.90;;
19623;SDS011;9959;49.798;9.928;2023-03-01T16:50:31;31.77;;;14.18;;
19623;SDS011;9959;49.798;9.928;2023-03-01T16:52:59;27.48;;;14.35;;
19623;SDS011;9959;49.798;9.928;2023-03-01T16:55:28;29.95;;;14.18;;
19623;SDS011;9959;49.798;9.928;2023-03-01T16:57:55;25.90;;;13.93;;